createdAt,value
2019-05-02T00:00:41.224Z,0.00
2019-05-02T00:01:41.245Z,0.00
2019-05-02T00:02:41.212Z,0.00
2019-05-02T00:03:42.894Z,0.00
2019-05-02T00:04:41.209Z,0.00
2019-05-02T00:05:41.206Z,0.00
2019-05-02T00:06:42.921Z,0.00
2019-05-02T00:07:41.204Z,0.00
2019-05-02T00:08:41.197Z,0.00
2019-05-02T00:09:47.768Z,0.00
2019-05-02T00:10:41.189Z,0.00
2019-05-02T00:11:41.221Z,0.00
2019-05-02T00:12:41.190Z,0.00
2019-05-02T00:13:41.182Z,0.00
2019-05-02T00:14:41.186Z,0.00
2019-05-02T00:15:41.178Z,0.00
2019-05-02T00:16:45.174Z,0.00
2019-05-02T00:17:41.207Z,0.00
2019-05-02T00:18:41.179Z,0.00
2019-05-02T00:19:45.140Z,0.00
2019-05-02T00:20:41.166Z,0.00
2019-05-02T00:21:43.127Z,0.00
2019-05-02T00:22:41.187Z,0.00
2019-05-02T00:23:41.159Z,0.00
2019-05-02T00:24:41.183Z,0.00
2019-05-02T00:25:41.159Z,0.00
2019-05-02T00:26:41.154Z,0.00
2019-05-02T00:27:41.175Z,0.00
2019-05-02T00:28:43.002Z,0.00
2019-05-02T00:29:41.135Z,0.00
2019-05-02T00:30:41.141Z,0.00
2019-05-02T00:31:41.952Z,0.00
2019-05-02T00:32:41.165Z,0.00
2019-05-02T00:33:41.133Z,0.00
2019-05-02T00:34:41.128Z,0.00
2019-05-02T00:35:45.905Z,0.00
2019-05-02T00:36:41.124Z,0.00
2019-05-02T00:37:41.156Z,0.00
2019-05-02T00:38:41.112Z,0.00
2019-05-02T00:39:45.121Z,0.00
2019-05-02T00:40:41.109Z,0.00
2019-05-02T00:41:41.106Z,0.00
2019-05-02T00:42:41.133Z,0.00
2019-05-02T00:43:41.097Z,0.00
2019-05-02T00:44:42.018Z,0.00
2019-05-02T00:45:41.097Z,0.00
2019-05-02T00:46:41.091Z,0.00
2019-05-02T00:47:42.339Z,0.00
2019-05-02T00:48:41.090Z,0.00
2019-05-02T00:49:41.086Z,0.00
2019-05-02T00:50:45.400Z,0.00
2019-05-02T00:51:41.078Z,0.00
2019-05-02T00:52:41.102Z,0.00
2019-05-02T00:53:44.406Z,0.00
2019-05-02T00:54:41.066Z,0.00
2019-05-02T00:55:41.068Z,0.00
2019-05-02T00:56:44.212Z,0.00
2019-05-02T00:57:41.059Z,0.00
2019-05-02T00:58:41.090Z,0.00
2019-05-02T00:59:42.448Z,0.00
2019-05-02T01:00:41.046Z,0.00
2019-05-02T01:01:41.051Z,0.00
2019-05-02T01:02:41.817Z,0.00
2019-05-02T01:03:41.071Z,0.00
2019-05-02T01:04:41.041Z,0.00
2019-05-02T01:05:41.036Z,0.00
2019-05-02T01:06:44.753Z,0.00
2019-05-02T01:07:41.038Z,0.00
2019-05-02T01:08:41.062Z,0.00
2019-05-02T01:09:42.098Z,0.00
2019-05-02T01:10:41.030Z,0.00
2019-05-02T01:11:41.019Z,0.00
2019-05-02T01:12:44.399Z,0.00
2019-05-02T01:13:41.039Z,0.00
2019-05-02T01:14:41.013Z,0.00
2019-05-02T01:15:44.219Z,0.00
2019-05-02T01:16:41.004Z,0.00
2019-05-02T01:17:41.006Z,0.00
2019-05-02T01:18:42.450Z,0.00
2019-05-02T01:19:41.136Z,0.00
2019-05-02T01:20:41.000Z,0.00
2019-05-02T01:21:40.995Z,0.00
2019-05-02T01:22:40.990Z,0.00
2019-05-02T01:23:41.019Z,0.00
2019-05-02T01:24:41.650Z,0.00
2019-05-02T01:25:40.983Z,0.00
2019-05-02T01:26:40.976Z,0.00
2019-05-02T01:27:42.456Z,0.00
2019-05-02T01:28:40.999Z,0.00
2019-05-02T01:29:40.970Z,0.00
2019-05-02T01:30:42.369Z,0.00
2019-05-02T01:31:40.962Z,0.00
2019-05-02T01:32:40.957Z,0.00
2019-05-02T01:33:41.664Z,0.00
2019-05-02T01:34:40.982Z,0.00
2019-05-02T01:35:40.950Z,0.00
2019-05-02T01:36:41.225Z,0.00
2019-05-02T01:37:40.947Z,0.00
2019-05-02T01:38:40.945Z,0.00
2019-05-02T01:39:42.705Z,0.00
2019-05-02T01:40:40.938Z,0.00
2019-05-02T01:41:40.935Z,0.00
2019-05-02T01:42:44.528Z,0.00
2019-05-02T01:43:40.928Z,0.00
2019-05-02T01:44:40.958Z,0.00
2019-05-02T01:45:41.878Z,0.00
2019-05-02T01:46:40.924Z,0.00
2019-05-02T01:47:40.922Z,0.00
2019-05-02T01:48:45.808Z,0.00
2019-05-02T01:49:40.940Z,0.00
2019-05-02T01:50:40.909Z,0.00
2019-05-02T01:51:41.925Z,0.00
2019-05-02T01:52:40.996Z,0.00
2019-05-02T01:53:40.900Z,0.00
2019-05-02T01:54:45.567Z,0.00
2019-05-02T01:55:40.894Z,0.00
2019-05-02T01:56:40.888Z,0.00
2019-05-02T01:57:44.693Z,0.00
2019-05-02T01:58:40.884Z,0.00
2019-05-02T01:59:40.910Z,0.00
2019-05-02T02:00:44.697Z,0.00
2019-05-02T02:01:40.877Z,0.00
2019-05-02T02:02:40.875Z,0.00
2019-05-02T02:03:45.757Z,0.00
2019-05-02T02:04:40.897Z,0.00
2019-05-02T02:05:40.861Z,0.00
2019-05-02T02:06:43.365Z,0.00
2019-05-02T02:07:40.858Z,0.00
2019-05-02T02:08:40.853Z,0.00
2019-05-02T02:09:44.072Z,0.00
2019-05-02T02:10:43.726Z,0.00
2019-05-02T02:11:40.849Z,0.00
2019-05-02T02:12:42.979Z,0.00
2019-05-02T02:13:40.834Z,0.00
2019-05-02T02:14:40.866Z,0.00
2019-05-02T02:15:40.830Z,0.00
2019-05-02T02:16:40.827Z,0.00
2019-05-02T02:17:40.822Z,0.00
2019-05-02T02:18:40.822Z,0.00
2019-05-02T02:19:40.847Z,0.00
2019-05-02T02:20:45.215Z,0.00
2019-05-02T02:21:42.865Z,0.00
2019-05-02T02:22:41.099Z,0.00
2019-05-02T02:23:44.888Z,0.00
2019-05-02T02:24:40.827Z,0.00
2019-05-02T02:25:40.798Z,0.00
2019-05-02T02:26:43.666Z,0.00
2019-05-02T02:27:40.812Z,0.00
2019-05-02T02:28:40.819Z,0.00
2019-05-02T02:29:43.965Z,0.00
2019-05-02T02:30:40.784Z,0.00
2019-05-02T02:31:46.540Z,0.00
2019-05-02T02:32:40.778Z,0.00
2019-05-02T02:33:47.499Z,0.00
2019-05-02T02:34:40.806Z,0.00
2019-05-02T02:35:49.707Z,0.00
2019-05-02T02:36:40.767Z,0.00
2019-05-02T02:37:51.959Z,0.00
2019-05-02T02:38:40.756Z,0.00
2019-05-02T02:39:40.781Z,0.00
2019-05-02T02:40:40.753Z,0.00
2019-05-02T02:41:45.301Z,0.00
2019-05-02T02:42:40.743Z,0.00
2019-05-02T02:43:40.741Z,0.00
2019-05-02T02:44:41.966Z,0.00
2019-05-02T02:45:40.734Z,0.00
2019-05-02T02:46:40.730Z,0.00
2019-05-02T02:47:40.730Z,0.00
2019-05-02T02:48:42.703Z,0.00
2019-05-02T02:49:40.747Z,0.00
2019-05-02T02:50:43.136Z,0.00
2019-05-02T02:51:40.721Z,0.00
2019-05-02T02:52:44.600Z,0.00
2019-05-02T02:53:40.954Z,0.00
2019-05-02T02:54:43.215Z,0.00
2019-05-02T02:55:40.698Z,0.00
2019-05-02T02:56:40.961Z,0.00
2019-05-02T02:57:40.695Z,0.00
2019-05-02T02:58:45.691Z,0.00
2019-05-02T02:59:40.716Z,0.00
2019-05-02T03:00:41.454Z,0.00
2019-05-02T03:01:40.682Z,0.00
2019-05-02T03:02:47.770Z,0.00
2019-05-02T03:03:40.675Z,0.00
2019-05-02T03:04:44.218Z,0.00
2019-05-02T03:05:40.668Z,0.00
2019-05-02T03:06:44.807Z,0.00
2019-05-02T03:07:40.659Z,0.00
2019-05-02T03:08:46.110Z,0.00
2019-05-02T03:09:40.800Z,0.00
2019-05-02T03:10:45.114Z,0.00
2019-05-02T03:11:40.648Z,4.00
2019-05-02T03:12:41.598Z,4.00
2019-05-02T03:13:51.250Z,4.00
2019-05-02T03:14:46.626Z,4.00
2019-05-02T03:15:40.635Z,4.00
2019-05-02T03:16:46.909Z,4.00
2019-05-02T03:17:40.628Z,8.00
2019-05-02T03:18:43.346Z,8.00
2019-05-02T03:19:40.878Z,8.00
2019-05-02T03:20:42.040Z,8.00
2019-05-02T03:21:40.619Z,12.00
2019-05-02T03:22:41.783Z,12.00
2019-05-02T03:23:40.607Z,16.00
2019-05-02T03:24:44.149Z,16.00
2019-05-02T03:25:50.286Z,20.00
2019-05-02T03:26:40.594Z,24.00
2019-05-02T03:27:40.603Z,28.00
2019-05-02T03:28:40.642Z,36.00
2019-05-02T03:29:44.353Z,40.00
2019-05-02T03:30:40.607Z,48.00
2019-05-02T03:31:40.578Z,56.00
2019-05-02T03:32:40.599Z,60.00
2019-05-02T03:33:53.782Z,68.00
2019-05-02T03:34:52.995Z,80.00
2019-05-02T03:35:44.648Z,92.00
2019-05-02T03:36:40.595Z,104.00
2019-05-02T03:37:44.674Z,120.00
2019-05-02T03:38:41.339Z,136.00
2019-05-02T03:39:40.655Z,152.00
2019-05-02T03:40:41.374Z,176.00
2019-05-02T03:41:40.540Z,196.00
2019-05-02T03:42:44.747Z,220.00
2019-05-02T03:43:40.544Z,248.00
2019-05-02T03:44:40.564Z,272.00
2019-05-02T03:45:43.016Z,300.00
2019-05-02T03:46:40.523Z,336.00
2019-05-02T03:47:43.856Z,368.00
2019-05-02T03:48:41.345Z,404.00
2019-05-02T03:49:47.889Z,444.00
2019-05-02T03:50:40.516Z,492.00
2019-05-02T03:51:40.511Z,540.00
2019-05-02T03:52:43.552Z,588.00
2019-05-02T03:53:40.500Z,632.00
2019-05-02T03:54:48.922Z,688.00
2019-05-02T03:55:40.497Z,744.00
2019-05-02T03:56:44.608Z,796.00
2019-05-02T03:57:42.060Z,836.00
2019-05-02T03:58:40.484Z,876.00
2019-05-02T03:59:41.872Z,920.00
2019-05-02T04:00:40.481Z,972.00
2019-05-02T04:01:41.423Z,1012.00
2019-05-02T04:02:40.464Z,1044.00
2019-05-02T04:03:43.419Z,1072.00
2019-05-02T04:04:40.495Z,1104.00
2019-05-02T04:05:42.235Z,1144.00
2019-05-02T04:06:40.456Z,1200.00
2019-05-02T04:07:42.194Z,1252.00
2019-05-02T04:08:40.453Z,1304.00
2019-05-02T04:09:42.563Z,1388.00
2019-05-02T04:10:40.444Z,1488.00
2019-05-02T04:11:40.993Z,1584.00
2019-05-02T04:12:40.442Z,1728.00
2019-05-02T04:13:40.432Z,1896.00
2019-05-02T04:14:40.473Z,2048.00
2019-05-02T04:15:40.422Z,2252.00
2019-05-02T04:16:40.418Z,2440.00
2019-05-02T04:17:40.417Z,2488.00
2019-05-02T04:18:40.424Z,2480.00
2019-05-02T04:19:40.452Z,2532.00
2019-05-02T04:20:43.626Z,2604.00
2019-05-02T04:21:40.409Z,2652.00
2019-05-02T04:22:42.935Z,2768.00
2019-05-02T04:23:40.398Z,2920.00
2019-05-02T04:24:40.428Z,3072.00
2019-05-02T04:25:40.394Z,3212.00
2019-05-02T04:26:52.805Z,3228.00
2019-05-02T04:27:40.390Z,3200.00
2019-05-02T04:28:45.665Z,3264.00
2019-05-02T04:29:40.410Z,3296.00
2019-05-02T04:30:45.265Z,3272.00
2019-05-02T04:31:40.379Z,3436.00
2019-05-02T04:32:42.939Z,3684.00
2019-05-02T04:33:40.373Z,3816.00
2019-05-02T04:34:40.402Z,3916.00
2019-05-02T04:35:40.367Z,4056.00
2019-05-02T04:36:40.362Z,4352.00
2019-05-02T04:37:41.346Z,4516.00
2019-05-02T04:38:46.888Z,4608.00
2019-05-02T04:39:40.388Z,4624.00
2019-05-02T04:40:41.785Z,4608.00
2019-05-02T04:41:42.340Z,4664.00
2019-05-02T04:42:40.351Z,4768.00
2019-05-02T04:43:50.356Z,5000.00
2019-05-02T04:44:52.978Z,5196.00
2019-05-02T04:45:53.136Z,5328.00
2019-05-02T04:46:40.341Z,5432.00
2019-05-02T04:47:42.589Z,5480.00
2019-05-02T04:48:48.138Z,5560.00
2019-05-02T04:49:40.337Z,5588.00
2019-05-02T04:50:40.339Z,5648.00
2019-05-02T04:51:40.326Z,5656.00
2019-05-02T04:52:51.219Z,5740.00
2019-05-02T04:53:45.055Z,5916.00
2019-05-02T04:54:40.316Z,6048.00
2019-05-02T04:55:40.326Z,6188.00
2019-05-02T04:56:49.643Z,6396.00
2019-05-02T04:57:47.284Z,6496.00
2019-05-02T04:58:40.804Z,6528.00
2019-05-02T04:59:40.315Z,6576.00
2019-05-02T05:00:45.099Z,6620.00
2019-05-02T05:01:49.177Z,6736.00
2019-05-02T05:02:40.332Z,6972.00
2019-05-02T05:03:40.330Z,7112.00
2019-05-02T05:04:46.120Z,7232.00
2019-05-02T05:05:40.460Z,7296.00
2019-05-02T05:06:40.917Z,7340.00
2019-05-02T05:07:45.842Z,7436.00
2019-05-02T05:08:41.668Z,7632.00
2019-05-02T05:09:40.562Z,7684.00
2019-05-02T05:10:41.486Z,7768.00
2019-05-02T05:11:40.289Z,7980.00
2019-05-02T05:12:41.793Z,7924.00
2019-05-02T05:13:40.322Z,7892.00
2019-05-02T05:14:43.324Z,8016.00
2019-05-02T05:15:48.561Z,8180.00
2019-05-02T05:16:40.282Z,8348.00
2019-05-02T05:17:40.291Z,8512.00
2019-05-02T05:18:43.928Z,8680.00
2019-05-02T05:19:40.278Z,8748.00
2019-05-02T05:20:40.607Z,8776.00
2019-05-02T05:21:40.279Z,8948.00
2019-05-02T05:22:44.384Z,9072.00
2019-05-02T05:23:40.314Z,9080.00
2019-05-02T05:24:42.311Z,9052.00
2019-05-02T05:25:40.274Z,9152.00
2019-05-02T05:26:42.922Z,9260.00
2019-05-02T05:27:40.273Z,9324.00
2019-05-02T05:28:44.221Z,9476.00
2019-05-02T05:29:40.271Z,9612.00
2019-05-02T05:30:45.152Z,9796.00
2019-05-02T05:31:40.277Z,9832.00
2019-05-02T05:32:40.292Z,9924.00
2019-05-02T05:33:40.266Z,10072.00
2019-05-02T05:34:40.268Z,10172.00
2019-05-02T05:35:43.269Z,10220.00
2019-05-02T05:36:40.267Z,10252.00
2019-05-02T05:37:43.316Z,10324.00
2019-05-02T05:38:40.706Z,10504.00
2019-05-02T05:39:43.151Z,10748.00
2019-05-02T05:40:40.260Z,10764.00
2019-05-02T05:41:42.580Z,10780.00
2019-05-02T05:42:40.285Z,10884.00
2019-05-02T05:43:40.261Z,10896.00
2019-05-02T05:44:40.268Z,11124.00
2019-05-02T05:45:50.831Z,11292.00
2019-05-02T05:46:42.499Z,11372.00
2019-05-02T05:47:40.295Z,11296.00
2019-05-02T05:48:40.842Z,11356.00
2019-05-02T05:49:40.257Z,11428.00
2019-05-02T05:50:41.516Z,11552.00
2019-05-02T05:51:40.257Z,11736.00
2019-05-02T05:52:42.349Z,11752.00
2019-05-02T05:53:40.258Z,11756.00
2019-05-02T05:54:42.034Z,11864.00
2019-05-02T05:55:40.259Z,11968.00
2019-05-02T05:56:43.230Z,12096.00
2019-05-02T05:57:40.289Z,12224.00
2019-05-02T05:58:50.426Z,12268.00
2019-05-02T05:59:40.261Z,12356.00
2019-05-02T06:00:40.257Z,12636.00
2019-05-02T06:01:40.253Z,12944.00
2019-05-02T06:02:52.695Z,13144.00
2019-05-02T06:03:44.597Z,13304.00
2019-05-02T06:04:40.258Z,13476.00
2019-05-02T06:05:41.193Z,13664.00
2019-05-02T06:06:40.258Z,13696.00
2019-05-02T06:07:44.003Z,13836.00
2019-05-02T06:08:40.288Z,13884.00
2019-05-02T06:09:40.255Z,13976.00
2019-05-02T06:10:43.909Z,14024.00
2019-05-02T06:11:40.253Z,14272.00
2019-05-02T06:12:40.264Z,14276.00
2019-05-02T06:13:42.986Z,14480.00
2019-05-02T06:14:40.259Z,14708.00
2019-05-02T06:15:40.479Z,14832.00
2019-05-02T06:16:40.262Z,14836.00
2019-05-02T06:17:40.258Z,14860.00
2019-05-02T06:18:41.869Z,15160.00
2019-05-02T06:19:40.283Z,15128.00
2019-05-02T06:20:40.264Z,15184.00
2019-05-02T06:21:45.238Z,15200.00
2019-05-02T06:22:40.254Z,15384.00
2019-05-02T06:23:41.567Z,15508.00
2019-05-02T06:24:40.434Z,15512.00
2019-05-02T06:25:42.528Z,15532.00
2019-05-02T06:26:40.263Z,15664.00
2019-05-02T06:27:40.279Z,15836.00
2019-05-02T06:28:41.526Z,15752.00
2019-05-02T06:29:40.313Z,15608.00
2019-05-02T06:30:40.267Z,15424.00
2019-05-02T06:31:43.172Z,15480.00
2019-05-02T06:32:40.271Z,15720.00
2019-05-02T06:33:40.275Z,15824.00
2019-05-02T06:34:46.589Z,15868.00
2019-05-02T06:35:40.272Z,16076.00
2019-05-02T06:36:40.273Z,16328.00
2019-05-02T06:37:40.766Z,15860.00
2019-05-02T06:38:40.276Z,14956.00
2019-05-02T06:39:40.307Z,15048.00
2019-05-02T06:40:44.722Z,15392.00
2019-05-02T06:41:40.273Z,13652.00
2019-05-02T06:42:40.279Z,14340.00
2019-05-02T06:43:41.073Z,14468.00
2019-05-02T06:44:40.309Z,15696.00
2019-05-02T06:45:40.280Z,16064.00
2019-05-02T06:46:40.264Z,16772.00
2019-05-02T06:47:41.646Z,17072.00
2019-05-02T06:48:40.853Z,17180.00
2019-05-02T06:49:40.315Z,17892.00
2019-05-02T06:50:40.590Z,17912.00
2019-05-02T06:51:40.289Z,18176.00
2019-05-02T06:52:40.289Z,18304.00
2019-05-02T06:53:41.429Z,19360.00
2019-05-02T06:54:40.324Z,20288.00
2019-05-02T06:55:40.295Z,20704.00
2019-05-02T06:56:43.007Z,20192.00
2019-05-02T06:57:40.292Z,20288.00
2019-05-02T06:58:41.934Z,19328.00
2019-05-02T06:59:40.320Z,19264.00
2019-05-02T07:00:56.518Z,20480.00
2019-05-02T07:01:40.302Z,23008.00
2019-05-02T07:02:40.302Z,24672.00
2019-05-02T07:03:41.299Z,23296.00
2019-05-02T07:04:40.338Z,23648.00
2019-05-02T07:05:40.306Z,22784.00
2019-05-02T07:06:50.092Z,22208.00
2019-05-02T07:07:40.312Z,18784.00
2019-05-02T07:08:40.396Z,20928.00
2019-05-02T07:09:41.591Z,20672.00
2019-05-02T07:10:44.965Z,18164.00
2019-05-02T07:11:40.974Z,19904.00
2019-05-02T07:12:40.322Z,20224.00
2019-05-02T07:13:42.124Z,19488.00
2019-05-02T07:14:40.362Z,19008.00
2019-05-02T07:15:40.535Z,19840.00
2019-05-02T07:16:40.331Z,20864.00
2019-05-02T07:17:40.337Z,19840.00
2019-05-02T07:18:42.131Z,20544.00
2019-05-02T07:19:40.335Z,20896.00
2019-05-02T07:20:42.349Z,20480.00
2019-05-02T07:21:40.346Z,21984.00
2019-05-02T07:22:40.821Z,24512.00
2019-05-02T07:23:40.349Z,23680.00
2019-05-02T07:24:40.353Z,20608.00
2019-05-02T07:25:44.013Z,22528.00
2019-05-02T07:26:40.356Z,23584.00
2019-05-02T07:27:40.359Z,19424.00
2019-05-02T07:28:45.473Z,23840.00
2019-05-02T07:29:40.364Z,23968.00
2019-05-02T07:30:40.399Z,23808.00
2019-05-02T07:31:42.944Z,24928.00
2019-05-02T07:32:40.376Z,27520.00
2019-05-02T07:33:40.378Z,31232.00
2019-05-02T07:34:44.291Z,30208.00
2019-05-02T07:35:40.385Z,25888.00
2019-05-02T07:36:40.392Z,21984.00
2019-05-02T07:37:44.054Z,14640.00
2019-05-02T07:38:40.395Z,14520.00
2019-05-02T07:39:40.974Z,22432.00
2019-05-02T07:40:40.432Z,25792.00
2019-05-02T07:41:40.409Z,24416.00
2019-05-02T07:42:41.822Z,25088.00
2019-05-02T07:43:40.416Z,30016.00
2019-05-02T07:44:40.423Z,31424.00
2019-05-02T07:45:45.198Z,33728.00
2019-05-02T07:46:51.224Z,34464.00
2019-05-02T07:47:42.380Z,36672.00
2019-05-02T07:48:43.414Z,38112.00
2019-05-02T07:49:40.438Z,40864.00
2019-05-02T07:50:41.144Z,35552.00
2019-05-02T07:51:40.442Z,36960.00
2019-05-02T07:52:41.208Z,36608.00
2019-05-02T07:53:44.454Z,36320.00
2019-05-02T07:54:40.460Z,34176.00
2019-05-02T07:55:42.384Z,33856.00
2019-05-02T07:56:40.463Z,35424.00
2019-05-02T07:57:40.467Z,34336.00
2019-05-02T07:58:47.027Z,34272.00
2019-05-02T07:59:40.478Z,34592.00
2019-05-02T08:00:40.507Z,34176.00
2019-05-02T08:01:40.483Z,34240.00
2019-05-02T08:02:40.494Z,34304.00
2019-05-02T08:03:40.499Z,33184.00
2019-05-02T08:04:43.586Z,30624.00
2019-05-02T08:05:40.539Z,27808.00
2019-05-02T08:06:44.664Z,26976.00
2019-05-02T08:07:40.528Z,26752.00
2019-05-02T08:08:40.524Z,25568.00
2019-05-02T08:09:43.995Z,27040.00
2019-05-02T08:10:40.563Z,27232.00
2019-05-02T08:11:40.541Z,26560.00
2019-05-02T08:12:40.553Z,26080.00
2019-05-02T08:13:40.556Z,26400.00
2019-05-02T08:14:40.561Z,27072.00
2019-05-02T08:15:40.597Z,25120.00
2019-05-02T08:16:40.579Z,22176.00
2019-05-02T08:17:40.585Z,26176.00
2019-05-02T08:18:40.585Z,25760.00
2019-05-02T08:19:41.695Z,24448.00
2019-05-02T08:20:40.628Z,27360.00
2019-05-02T08:21:40.606Z,26784.00
2019-05-02T08:22:44.029Z,26240.00
2019-05-02T08:23:40.623Z,26080.00
2019-05-02T08:24:40.628Z,26720.00
2019-05-02T08:25:41.509Z,28192.00
2019-05-02T08:26:40.640Z,29024.00
2019-05-02T08:27:40.655Z,29312.00
2019-05-02T08:28:40.657Z,29248.00
2019-05-02T08:29:40.661Z,27712.00
2019-05-02T08:30:41.871Z,27456.00
2019-05-02T08:31:40.681Z,27488.00
2019-05-02T08:32:40.685Z,25248.00
2019-05-02T08:33:40.693Z,24704.00
2019-05-02T08:34:40.704Z,25568.00
2019-05-02T08:35:40.739Z,26144.00
2019-05-02T08:36:40.717Z,25664.00
2019-05-02T08:37:41.464Z,26752.00
2019-05-02T08:38:40.737Z,27200.00
2019-05-02T08:39:40.745Z,26848.00
2019-05-02T08:40:42.412Z,27360.00
2019-05-02T08:41:40.757Z,27232.00
2019-05-02T08:42:40.767Z,27776.00
2019-05-02T08:43:44.896Z,28096.00
2019-05-02T08:44:50.706Z,27968.00
2019-05-02T08:45:40.823Z,29088.00
2019-05-02T08:46:40.798Z,28096.00
2019-05-02T08:47:40.806Z,28256.00
2019-05-02T08:48:41.849Z,29472.00
2019-05-02T08:49:42.515Z,28832.00
2019-05-02T08:50:40.866Z,28832.00
2019-05-02T08:51:41.592Z,30176.00
2019-05-02T08:52:42.202Z,31584.00
2019-05-02T08:53:40.865Z,33280.00
2019-05-02T08:54:40.878Z,35264.00
2019-05-02T08:55:41.287Z,33344.00
2019-05-02T08:56:40.921Z,36256.00
2019-05-02T08:57:40.901Z,35872.00
2019-05-02T08:58:44.879Z,38528.00
2019-05-02T08:59:41.014Z,37344.00
2019-05-02T09:00:40.955Z,36992.00
2019-05-02T09:01:44.770Z,37632.00
2019-05-02T09:02:42.017Z,37408.00
2019-05-02T09:03:54.721Z,38240.00
2019-05-02T09:04:40.977Z,39360.00
2019-05-02T09:05:45.561Z,37376.00
2019-05-02T09:06:40.988Z,40192.00
2019-05-02T09:07:42.946Z,41952.00
2019-05-02T09:08:41.008Z,39008.00
2019-05-02T09:09:41.033Z,38368.00
2019-05-02T09:10:42.214Z,38240.00
2019-05-02T09:11:41.506Z,39808.00
2019-05-02T09:12:44.311Z,37376.00
2019-05-02T09:13:42.210Z,36896.00
2019-05-02T09:14:42.606Z,36704.00
2019-05-02T09:15:49.766Z,35840.00
2019-05-02T09:16:42.745Z,37312.00
2019-05-02T09:17:44.637Z,36992.00
2019-05-02T09:18:50.098Z,37920.00
2019-05-02T09:19:42.934Z,40032.00
2019-05-02T09:20:42.340Z,43328.00
2019-05-02T09:21:42.917Z,43296.00
2019-05-02T09:22:41.864Z,44960.00
2019-05-02T09:23:42.090Z,39424.00
2019-05-02T09:24:43.068Z,40704.00
2019-05-02T09:25:42.968Z,41472.00
2019-05-02T09:26:42.577Z,43744.00
2019-05-02T09:27:42.054Z,43008.00
2019-05-02T09:28:42.271Z,41728.00
2019-05-02T09:29:42.474Z,42176.00
2019-05-02T09:30:41.951Z,44384.00
2019-05-02T09:31:44.354Z,42720.00
2019-05-02T09:32:41.882Z,43904.00
2019-05-02T09:33:45.259Z,45632.00
2019-05-02T09:34:42.357Z,42720.00
2019-05-02T09:35:42.152Z,44800.00
2019-05-02T09:36:41.825Z,46304.00
2019-05-02T09:37:41.859Z,46528.00
2019-05-02T09:38:42.497Z,49408.00
2019-05-02T09:39:41.603Z,45792.00
2019-05-02T09:40:42.623Z,48928.00
2019-05-02T09:41:41.927Z,54976.00
2019-05-02T09:42:42.955Z,56000.00
2019-05-02T09:43:42.615Z,53024.00
2019-05-02T09:44:42.588Z,53440.00
2019-05-02T09:45:43.824Z,54944.00
2019-05-02T09:46:42.828Z,54880.00
2019-05-02T09:47:55.449Z,55424.00
2019-05-02T09:48:42.642Z,56960.00
2019-05-02T09:49:48.924Z,57152.00
2019-05-02T09:50:42.199Z,56960.00
2019-05-02T09:51:42.044Z,62720.00
2019-05-02T09:52:44.187Z,65440.00
2019-05-02T09:53:43.198Z,64800.00
2019-05-02T09:54:44.557Z,66272.00
2019-05-02T09:55:49.560Z,66848.00
2019-05-02T09:56:43.061Z,66848.00
2019-05-02T09:57:42.784Z,68704.00
2019-05-02T09:58:42.040Z,69824.00
2019-05-02T09:59:43.155Z,69472.00
2019-05-02T10:00:41.933Z,71872.00
2019-05-02T10:01:42.138Z,75488.00
2019-05-02T10:02:41.916Z,73248.00
2019-05-02T10:03:42.335Z,77440.00
2019-05-02T10:04:44.037Z,80416.00
2019-05-02T10:05:43.099Z,76736.00
2019-05-02T10:06:42.939Z,78880.00
2019-05-02T10:07:42.009Z,85664.00
2019-05-02T10:08:43.522Z,89376.00
2019-05-02T10:09:42.421Z,87712.00
2019-05-02T10:10:44.896Z,94752.00
2019-05-02T10:11:41.883Z,100064.00
2019-05-02T10:12:42.702Z,102720.00
2019-05-02T10:13:42.441Z,102176.00
2019-05-02T10:14:42.186Z,99392.00
2019-05-02T10:15:42.211Z,105728.00
2019-05-02T10:16:42.616Z,103136.00
2019-05-02T10:17:42.872Z,101888.00
2019-05-02T10:18:43.128Z,107552.00
2019-05-02T10:19:48.804Z,104192.00
2019-05-02T10:20:42.060Z,98336.00
2019-05-02T10:21:42.248Z,100032.00
2019-05-02T10:22:43.735Z,103200.00
2019-05-02T10:23:42.734Z,101888.00
2019-05-02T10:24:42.545Z,108448.00
2019-05-02T10:25:46.620Z,109056.00
2019-05-02T10:26:42.011Z,108224.00
2019-05-02T10:27:45.963Z,112000.00
2019-05-02T10:28:49.280Z,99520.00
2019-05-02T10:29:41.997Z,87936.00
2019-05-02T10:30:42.637Z,107712.00
2019-05-02T10:31:42.312Z,113216.00
2019-05-02T10:32:42.751Z,106912.00
2019-05-02T10:33:42.914Z,108224.00
2019-05-02T10:34:42.279Z,105824.00
2019-05-02T10:35:43.334Z,103552.00
2019-05-02T10:36:44.890Z,108544.00
2019-05-02T10:37:43.071Z,111456.00
2019-05-02T10:38:42.715Z,107104.00
2019-05-02T10:39:42.369Z,103264.00
2019-05-02T10:40:42.538Z,102848.00
2019-05-02T10:41:43.777Z,103744.00
2019-05-02T10:42:42.171Z,105280.00
2019-05-02T10:43:42.435Z,106752.00
2019-05-02T10:44:42.661Z,107712.00
2019-05-02T10:45:42.639Z,108672.00
2019-05-02T10:46:42.230Z,104352.00
2019-05-02T10:47:42.401Z,102304.00
2019-05-02T10:48:42.336Z,109952.00
2019-05-02T10:49:42.695Z,106304.00
2019-05-02T10:50:42.320Z,106176.00
2019-05-02T10:51:49.042Z,105024.00
2019-05-02T10:52:42.556Z,100160.00
2019-05-02T10:53:42.502Z,104672.00
2019-05-02T10:54:42.347Z,105824.00
2019-05-02T10:55:42.643Z,100832.00
2019-05-02T10:56:42.441Z,95328.00
2019-05-02T10:57:42.393Z,103680.00
2019-05-02T10:58:42.678Z,105152.00
2019-05-02T10:59:42.454Z,103776.00
2019-05-02T11:00:45.280Z,36096.00
2019-05-02T11:01:42.483Z,106144.00
2019-05-02T11:02:42.498Z,113440.00
2019-05-02T11:03:43.774Z,107904.00
2019-05-02T11:04:42.507Z,110656.00
2019-05-02T11:05:42.506Z,105952.00
2019-05-02T11:06:46.084Z,116960.00
2019-05-02T11:07:42.551Z,118304.00
2019-05-02T11:08:46.013Z,118048.00
2019-05-02T11:09:42.576Z,106720.00
2019-05-02T11:10:42.595Z,116896.00
2019-05-02T11:11:42.657Z,116288.00
2019-05-02T11:12:46.964Z,120480.00
2019-05-02T11:13:42.673Z,122752.00
2019-05-02T11:14:42.662Z,124832.00
2019-05-02T11:15:42.675Z,121184.00
2019-05-02T11:16:42.720Z,126560.00
2019-05-02T11:17:42.704Z,125376.00
2019-05-02T11:18:45.223Z,123104.00
2019-05-02T11:19:42.740Z,121376.00
2019-05-02T11:20:42.760Z,123488.00
2019-05-02T11:21:55.807Z,122784.00
2019-05-02T11:22:42.880Z,119744.00
2019-05-02T11:23:42.835Z,113280.00
2019-05-02T11:24:42.822Z,41696.00
2019-05-02T11:25:42.838Z,116096.00
2019-05-02T11:26:42.987Z,122080.00
2019-05-02T11:27:42.869Z,115360.00
2019-05-02T11:28:42.902Z,113024.00
2019-05-02T11:29:42.903Z,110528.00
2019-05-02T11:30:42.919Z,110272.00
2019-05-02T11:31:42.961Z,82048.00
2019-05-02T11:32:42.952Z,109664.00
2019-05-02T11:33:42.962Z,53120.00
2019-05-02T11:34:42.983Z,98080.00
2019-05-02T11:35:49.082Z,109728.00
2019-05-02T11:36:43.039Z,110848.00
2019-05-02T11:37:43.030Z,108032.00
2019-05-02T11:38:45.222Z,68768.00
2019-05-02T11:39:50.021Z,98688.00
2019-05-02T11:40:43.077Z,43680.00
2019-05-02T11:41:43.115Z,106464.00
2019-05-02T11:42:43.109Z,118080.00
2019-05-02T11:43:44.967Z,44128.00
2019-05-02T11:44:43.137Z,76736.00
2019-05-02T11:45:43.152Z,75936.00
2019-05-02T11:46:46.878Z,52320.00
2019-05-02T11:47:43.179Z,52512.00
2019-05-02T11:48:55.603Z,116576.00
2019-05-02T11:49:46.834Z,103072.00
2019-05-02T11:50:43.228Z,118144.00
2019-05-02T11:51:47.132Z,48256.00
2019-05-02T11:52:43.252Z,40544.00
2019-05-02T11:53:43.269Z,34336.00
2019-05-02T11:54:44.678Z,28064.00
2019-05-02T11:55:43.847Z,24288.00
2019-05-02T11:56:48.851Z,22624.00
2019-05-02T11:57:43.325Z,23808.00
2019-05-02T11:58:48.019Z,31808.00
2019-05-02T11:59:43.351Z,122304.00
2019-05-02T12:00:48.419Z,51392.00
2019-05-02T12:01:56.217Z,131616.00
2019-05-02T12:02:43.385Z,126752.00
2019-05-02T12:03:43.446Z,133568.00
2019-05-02T12:04:47.240Z,129664.00
2019-05-02T12:05:43.451Z,124288.00
2019-05-02T12:06:43.436Z,121888.00
2019-05-02T12:07:43.448Z,125728.00
2019-05-02T12:08:45.000Z,123424.00
2019-05-02T12:09:50.783Z,89312.00
2019-05-02T12:10:43.511Z,47232.00